Passumpsic, Vermont
Current Conditions -  °F | °C
As of 7:55 PM on Friday 24 Oct 2014 (Local Time) from KCDA Reporting Station
Overcast Overcast  
Wind Chill: 39°   Ceiling: 2000
Heat Index: 43°   Visibility: 10mi
Dew Point: 37°   Wind: 7mph
Humidity: 78%   Direction: 300°WNW
Pressure: 29.81"   Gusts: NA
Location:  44.38°N, 72.03°W
Report Text: KCDA 242355Z AUTO 30006KT 10SM SCT014 BKN020 OVC035 06/03 A2981 RMK AO2 T00630027 10067 20060
Loading
Personal Weather Stations






























Interactive Weather Map
Tropical Storm Tracking
New forecast layout! Learn more

10-Day Weather Forecast

Advertisements
Track Severe Weather on mobile